Himki, Russia
Current Conditions -  °F | °C
As of 10:30 PM on Wednesday 17 Dec 2014 (Local Time) from UUEE Reporting Station
Light Rain Light Rain  
Wind Chill: 27°   Ceiling: 600
Heat Index: 36°   Visibility: 5mi
Dew Point: 34°   Wind: 13mph
Humidity: 93%   Direction: 170°S
Pressure: 29.59"   Gusts: NA
Location:  55.89°N, 37.44°E
Report Text: UUEE 171930Z 17006MPS 8000 -RA OVC006 02/01 Q1002 7529014525290145 NOSIG
Loading
Personal Weather Stations






























Interactive Weather Map New forecast layout! Learn more

10-Day Weather Forecast

Advertisements
Track Severe Weather on mobile